createdAt,value
2019-02-02T00:00:53.903Z,4.67
2019-02-02T00:03:25.401Z,4.65
2019-02-02T00:05:56.293Z,4.60
2019-02-02T00:08:27.335Z,4.58
2019-02-02T00:10:58.290Z,4.53
2019-02-02T00:13:29.351Z,4.49
2019-02-02T00:16:00.251Z,4.49
2019-02-02T00:18:31.235Z,4.52
2019-02-02T00:21:02.041Z,4.57
2019-02-02T00:23:33.013Z,4.68
2019-02-02T00:26:04.143Z,4.72
2019-02-02T00:28:35.175Z,4.71
2019-02-02T00:31:06.191Z,4.73
2019-02-02T00:33:37.283Z,4.76
2019-02-02T00:36:08.184Z,4.76
2019-02-02T00:38:40.038Z,4.80
2019-02-02T00:41:10.878Z,4.79
2019-02-02T00:43:42.064Z,4.77
2019-02-02T00:46:12.948Z,4.74
2019-02-02T00:48:43.932Z,4.80
2019-02-02T00:51:14.843Z,4.76
2019-02-02T00:53:45.939Z,4.75
2019-02-02T00:56:16.699Z,4.75
2019-02-02T00:58:47.928Z,4.75
2019-02-02T01:01:19.207Z,4.71
2019-02-02T01:03:50.585Z,4.65
2019-02-02T01:06:21.495Z,4.65
2019-02-02T01:08:52.668Z,4.68
2019-02-02T01:11:23.763Z,4.68
2019-02-02T01:13:54.859Z,4.70
2019-02-02T01:16:25.758Z,4.67
2019-02-02T01:18:56.740Z,4.59
2019-02-02T01:21:27.629Z,4.59
2019-02-02T01:23:58.778Z,4.58
2019-02-02T01:26:29.727Z,4.58
2019-02-02T01:29:00.755Z,4.64
2019-02-02T01:31:31.793Z,4.71
2019-02-02T01:34:02.796Z,4.73
2019-02-02T01:36:33.948Z,4.71
2019-02-02T01:39:07.538Z,4.68
2019-02-02T01:41:39.551Z,4.64
2019-02-02T01:44:10.448Z,4.63
2019-02-02T01:46:41.309Z,4.62
2019-02-02T01:49:12.588Z,4.62
2019-02-02T01:51:43.515Z,4.69
2019-02-02T01:54:14.507Z,4.63
2019-02-02T01:56:45.366Z,4.63
2019-02-02T01:59:16.370Z,4.66
2019-02-02T02:01:47.245Z,4.61
2019-02-02T02:04:18.058Z,4.56
2019-02-02T02:06:48.838Z,4.58
2019-02-02T02:09:19.827Z,4.61
2019-02-02T02:11:50.796Z,4.64
2019-02-02T02:14:21.848Z,4.62
2019-02-02T02:16:52.797Z,4.65
2019-02-02T02:19:23.683Z,4.62
2019-02-02T02:21:54.570Z,4.62
2019-02-02T02:24:25.530Z,4.64
2019-02-02T02:26:56.433Z,4.65
2019-02-02T02:29:27.536Z,4.67
2019-02-02T02:31:58.443Z,4.65
2019-02-02T02:34:29.435Z,4.64
2019-02-02T02:37:00.284Z,4.60
2019-02-02T02:39:31.311Z,4.58
2019-02-02T02:42:02.292Z,4.54
2019-02-02T02:44:33.255Z,4.56
2019-02-02T02:47:04.143Z,4.60
2019-02-02T02:49:35.052Z,4.65
2019-02-02T02:52:06.038Z,4.59
2019-02-02T02:54:36.930Z,4.56
2019-02-02T02:57:07.724Z,4.62
2019-02-02T02:59:38.584Z,4.55
2019-02-02T03:02:09.467Z,4.57
2019-02-02T03:04:40.829Z,4.63
2019-02-02T03:07:11.763Z,4.68
2019-02-02T03:09:42.657Z,4.68
2019-02-02T03:12:13.631Z,4.68
2019-02-02T03:14:44.741Z,4.73
2019-02-02T03:17:15.516Z,4.68
2019-02-02T03:19:46.498Z,4.66
2019-02-02T03:22:17.383Z,4.67
2019-02-02T03:24:48.305Z,4.69
2019-02-02T03:27:19.244Z,4.73
2019-02-02T03:29:50.075Z,4.72
2019-02-02T03:32:21.028Z,4.65
2019-02-02T03:34:52.043Z,4.57
2019-02-02T03:37:22.916Z,4.54
2019-02-02T03:39:53.916Z,4.55
2019-02-02T03:42:24.792Z,4.60
2019-02-02T03:44:55.925Z,4.60
2019-02-02T03:47:26.679Z,4.63
2019-02-02T03:49:57.661Z,4.63
2019-02-02T03:52:28.471Z,4.66
2019-02-02T03:54:59.355Z,4.72
2019-02-02T03:57:30.220Z,4.72
2019-02-02T04:00:01.323Z,4.67
2019-02-02T04:02:33.437Z,4.55
2019-02-02T04:05:04.726Z,4.51
2019-02-02T04:07:35.636Z,4.54
2019-02-02T04:10:08.449Z,4.60
2019-02-02T04:12:39.334Z,4.63
2019-02-02T04:15:10.665Z,4.58
2019-02-02T04:17:42.020Z,4.63
2019-02-02T04:20:15.544Z,4.64
2019-02-02T04:22:46.465Z,4.66
2019-02-02T04:25:18.391Z,4.62
2019-02-02T04:27:49.501Z,4.51
2019-02-02T04:30:22.396Z,4.42
2019-02-02T04:32:53.295Z,4.51
2019-02-02T04:35:24.491Z,4.55
2019-02-02T04:37:55.398Z,4.63
2019-02-02T04:40:27.091Z,4.65
2019-02-02T04:42:57.987Z,4.66
2019-02-02T04:45:29.168Z,4.65
2019-02-02T04:48:00.054Z,4.58
2019-02-02T04:50:30.948Z,4.58
2019-02-02T04:53:01.635Z,4.62
2019-02-02T04:55:32.708Z,4.68
2019-02-02T04:58:03.723Z,4.68
2019-02-02T05:00:34.719Z,4.64
2019-02-02T05:03:05.701Z,4.56
2019-02-02T05:05:36.691Z,4.57
2019-02-02T05:08:07.588Z,4.61
2019-02-02T05:10:38.639Z,4.65
2019-02-02T05:13:09.539Z,4.67
2019-02-02T05:15:40.834Z,4.65
2019-02-02T05:18:11.642Z,4.71
2019-02-02T05:20:42.703Z,4.76
2019-02-02T05:23:13.604Z,4.76
2019-02-02T05:25:44.603Z,4.77
2019-02-02T05:28:15.498Z,4.75
2019-02-02T05:30:46.551Z,4.77
2019-02-02T05:33:17.478Z,4.76
2019-02-02T05:35:48.459Z,4.78
2019-02-02T05:38:19.335Z,4.77
2019-02-02T05:40:51.134Z,4.77
2019-02-02T05:43:22.054Z,4.78
2019-02-02T05:45:53.314Z,4.72
2019-02-02T05:48:24.242Z,4.68
2019-02-02T05:50:55.130Z,4.66
2019-02-02T05:53:26.011Z,4.66
2019-02-02T05:55:56.996Z,4.58
2019-02-02T05:58:28.191Z,4.56
2019-02-02T06:00:59.191Z,4.58
2019-02-02T06:03:30.075Z,4.55
2019-02-02T06:06:00.951Z,4.59
2019-02-02T06:08:31.726Z,4.65
2019-02-02T06:11:02.707Z,4.68
2019-02-02T06:13:33.505Z,4.66
2019-02-02T06:16:04.702Z,4.69
2019-02-02T06:18:35.583Z,4.71
2019-02-02T06:21:06.579Z,4.69
2019-02-02T06:23:37.383Z,4.68
2019-02-02T06:26:08.372Z,4.63
2019-02-02T06:28:39.261Z,4.56
2019-02-02T06:31:10.333Z,4.51
2019-02-02T06:33:41.116Z,4.47
2019-02-02T06:36:12.131Z,4.42
2019-02-02T06:38:42.911Z,4.41
2019-02-02T06:41:14.227Z,4.45
2019-02-02T06:43:45.285Z,4.42
2019-02-02T06:46:16.275Z,4.38
2019-02-02T06:48:47.178Z,4.40
2019-02-02T06:51:18.141Z,4.39
2019-02-02T06:53:48.952Z,4.41
2019-02-02T06:56:19.947Z,4.36
2019-02-02T06:58:50.817Z,4.40
2019-02-02T07:01:22.179Z,4.43
2019-02-02T07:03:53.114Z,4.33
2019-02-02T07:06:24.094Z,4.34
2019-02-02T07:08:55.293Z,4.43
2019-02-02T07:11:26.195Z,4.42
2019-02-02T07:13:57.075Z,4.51
2019-02-02T07:16:28.061Z,4.52
2019-02-02T07:18:58.931Z,4.52
2019-02-02T07:21:29.900Z,4.42
2019-02-02T07:24:00.711Z,4.33
2019-02-02T07:26:31.695Z,4.27
2019-02-02T07:29:02.608Z,4.15
2019-02-02T07:31:33.699Z,4.14
2019-02-02T07:34:04.582Z,4.14
2019-02-02T07:36:35.727Z,4.13
2019-02-02T07:39:08.413Z,4.23
2019-02-02T07:41:41.213Z,4.23
2019-02-02T07:44:12.108Z,4.15
2019-02-02T07:46:43.103Z,4.12
2019-02-02T07:49:13.903Z,4.18
2019-02-02T07:51:44.802Z,4.19
2019-02-02T07:54:15.664Z,4.20
2019-02-02T07:56:46.603Z,4.20
2019-02-02T07:59:17.635Z,4.25
2019-02-02T08:01:48.647Z,4.25
2019-02-02T08:04:21.334Z,4.28
2019-02-02T08:06:53.884Z,4.29
2019-02-02T08:09:25.920Z,4.34
2019-02-02T08:11:57.916Z,4.39
2019-02-02T08:14:28.819Z,4.47
2019-02-02T08:16:59.743Z,4.56
2019-02-02T08:19:30.682Z,4.65
2019-02-02T08:22:01.572Z,4.72
2019-02-02T08:24:32.455Z,4.75
2019-02-02T08:27:03.558Z,4.81
2019-02-02T08:29:34.451Z,4.85
2019-02-02T08:32:06.100Z,4.86
2019-02-02T08:34:37.031Z,4.82
2019-02-02T08:37:08.319Z,4.66
2019-02-02T08:39:39.515Z,4.73
2019-02-02T08:42:10.566Z,4.89
2019-02-02T08:44:41.312Z,4.93
2019-02-02T08:47:12.487Z,4.86
2019-02-02T08:49:43.291Z,4.85
2019-02-02T08:52:14.280Z,5.01
2019-02-02T08:54:45.057Z,4.86
2019-02-02T08:57:16.311Z,4.92
2019-02-02T08:59:47.352Z,5.03
2019-02-02T09:02:18.180Z,5.01
2019-02-02T09:04:49.104Z,4.77
2019-02-02T09:07:20.108Z,4.48
2019-02-02T09:09:50.988Z,4.48
2019-02-02T09:12:22.709Z,4.76
2019-02-02T09:14:53.375Z,4.76
2019-02-02T09:17:24.370Z,4.91
2019-02-02T09:19:55.356Z,5.08
2019-02-02T09:22:26.264Z,5.17
2019-02-02T09:24:57.311Z,5.19
2019-02-02T09:27:28.356Z,5.07
2019-02-02T09:29:59.323Z,4.98
2019-02-02T09:32:30.308Z,5.03
2019-02-02T09:35:01.211Z,4.86
2019-02-02T09:37:32.104Z,5.08
2019-02-02T09:40:02.985Z,5.22
2019-02-02T09:42:34.675Z,5.36
2019-02-02T09:45:07.310Z,5.37
2019-02-02T09:47:38.305Z,5.48
2019-02-02T09:50:11.235Z,5.44
2019-02-02T09:52:42.382Z,5.61
2019-02-02T09:55:14.957Z,5.71
2019-02-02T09:57:45.939Z,5.75
2019-02-02T10:00:25.707Z,5.69
2019-02-02T10:02:56.760Z,5.79
2019-02-02T10:05:28.045Z,5.88
2019-02-02T10:07:59.211Z,6.02
2019-02-02T10:10:31.769Z,6.02
2019-02-02T10:13:02.943Z,6.14
2019-02-02T10:15:33.833Z,6.16
2019-02-02T10:18:05.147Z,6.37
2019-02-02T10:20:36.006Z,6.37
2019-02-02T10:23:07.325Z,6.49
2019-02-02T10:25:39.234Z,6.65
2019-02-02T10:28:10.230Z,6.76
2019-02-02T10:30:43.298Z,7.04
2019-02-02T10:33:15.178Z,7.16
2019-02-02T10:35:46.049Z,7.26
2019-02-02T10:38:17.053Z,7.42
2019-02-02T10:40:47.941Z,7.59
2019-02-02T10:43:19.699Z,7.85
2019-02-02T10:45:50.634Z,8.17
2019-02-02T10:48:21.619Z,8.18
2019-02-02T10:50:52.385Z,8.14
2019-02-02T10:53:23.383Z,8.07
2019-02-02T10:55:54.262Z,8.18
2019-02-02T10:58:25.251Z,8.17
2019-02-02T11:00:56.265Z,8.06
2019-02-02T11:03:27.254Z,7.90
2019-02-02T11:05:58.222Z,7.91
2019-02-02T11:08:29.394Z,7.86
2019-02-02T11:11:00.456Z,7.86
2019-02-02T11:13:31.520Z,7.87
2019-02-02T11:16:02.283Z,7.89
2019-02-02T11:18:33.502Z,7.98
2019-02-02T11:21:04.639Z,8.04
2019-02-02T11:23:35.962Z,8.16
2019-02-02T11:26:06.888Z,8.20
2019-02-02T11:28:38.010Z,8.29
2019-02-02T11:31:08.856Z,8.28
2019-02-02T11:33:40.093Z,8.33
2019-02-02T11:36:11.048Z,8.17
2019-02-02T11:38:42.014Z,8.09
2019-02-02T11:41:12.917Z,8.26
2019-02-02T11:43:44.489Z,8.20
2019-02-02T11:46:15.406Z,8.14
2019-02-02T11:48:46.791Z,8.16
2019-02-02T11:51:17.731Z,8.17
2019-02-02T11:53:48.832Z,8.25
2019-02-02T11:56:19.689Z,8.30
2019-02-02T11:58:50.280Z,8.39
2019-02-02T12:01:21.245Z,8.44
2019-02-02T12:03:52.305Z,8.45
2019-02-02T12:06:23.203Z,8.43
2019-02-02T12:08:54.101Z,8.49
2019-02-02T12:11:24.982Z,8.52
2019-02-02T12:13:56.409Z,8.50
2019-02-02T12:16:27.268Z,8.60
2019-02-02T12:18:58.350Z,8.57
2019-02-02T12:21:29.258Z,8.61
2019-02-02T12:24:12.753Z,8.61
2019-02-02T12:26:33.090Z,8.68
2019-02-02T12:29:04.092Z,8.73
2019-02-02T12:31:34.949Z,8.79
2019-02-02T12:34:06.375Z,8.85
2019-02-02T12:36:37.152Z,9.02
2019-02-02T12:39:11.708Z,9.08
2019-02-02T12:41:42.709Z,9.17
2019-02-02T12:44:13.850Z,9.24
2019-02-02T12:46:44.804Z,9.17
2019-02-02T12:49:15.696Z,9.16
2019-02-02T12:51:46.468Z,9.14
2019-02-02T12:54:17.358Z,9.16
2019-02-02T12:56:48.126Z,9.24
2019-02-02T12:59:19.130Z,9.33
2019-02-02T13:01:50.101Z,9.36
2019-02-02T13:04:21.099Z,9.45
2019-02-02T13:06:52.309Z,9.47
2019-02-02T13:09:23.546Z,9.51
2019-02-02T13:11:56.171Z,9.53
2019-02-02T13:14:27.192Z,9.41
2019-02-02T13:16:59.888Z,9.20
2019-02-02T13:19:30.526Z,9.16
2019-02-02T13:22:01.421Z,9.23
2019-02-02T13:24:32.399Z,9.12
2019-02-02T13:27:03.297Z,9.13
2019-02-02T13:29:34.273Z,9.04
2019-02-02T13:32:05.161Z,9.02
2019-02-02T13:34:36.123Z,9.07
2019-02-02T13:37:07.034Z,9.19
2019-02-02T13:39:38.059Z,9.11
2019-02-02T13:42:08.934Z,9.11
2019-02-02T13:44:40.693Z,9.17
2019-02-02T13:47:11.529Z,9.06
2019-02-02T13:49:42.709Z,9.05
2019-02-02T13:52:13.589Z,9.26
2019-02-02T13:54:44.484Z,9.19
2019-02-02T13:57:15.532Z,9.15
2019-02-02T13:59:46.284Z,9.10
2019-02-02T14:02:17.644Z,9.26
2019-02-02T14:04:48.845Z,9.22
2019-02-02T14:07:19.750Z,9.29
2019-02-02T14:09:51.015Z,9.43
2019-02-02T14:12:21.929Z,9.51
2019-02-02T14:14:52.823Z,9.51
2019-02-02T14:17:23.584Z,9.45
2019-02-02T14:19:54.497Z,9.32
2019-02-02T14:22:25.365Z,9.20
2019-02-02T14:24:56.414Z,9.22
2019-02-02T14:27:27.739Z,9.12
2019-02-02T14:29:58.824Z,9.21
2019-02-02T14:32:29.732Z,9.28
2019-02-02T14:35:00.630Z,9.28
2019-02-02T14:37:32.544Z,9.23
2019-02-02T14:40:03.613Z,9.23
2019-02-02T14:42:34.425Z,9.16
2019-02-02T14:45:07.765Z,9.17
2019-02-02T14:47:39.065Z,9.21
2019-02-02T14:50:12.724Z,9.21
2019-02-02T14:52:43.692Z,9.18
2019-02-02T14:55:16.862Z,9.10
2019-02-02T14:57:47.413Z,9.24
2019-02-02T15:00:23.416Z,9.23
2019-02-02T15:02:54.580Z,9.24
2019-02-02T15:05:25.607Z,9.04
2019-02-02T15:07:57.734Z,8.99
2019-02-02T15:10:28.805Z,9.00
2019-02-02T15:12:59.625Z,8.96
2019-02-02T15:15:30.690Z,8.92
2019-02-02T15:18:01.497Z,8.93
2019-02-02T15:20:37.139Z,8.92
2019-02-02T15:23:08.468Z,8.95
2019-02-02T15:25:39.658Z,8.87
2019-02-02T15:28:11.600Z,8.82
2019-02-02T15:30:42.742Z,8.73
2019-02-02T15:33:13.662Z,8.67
2019-02-02T15:35:44.642Z,8.60
2019-02-02T15:38:16.994Z,8.48
2019-02-02T15:40:58.464Z,8.47
2019-02-02T15:43:22.403Z,8.45
2019-02-02T15:45:53.326Z,8.40
2019-02-02T15:48:24.109Z,8.37
2019-02-02T15:50:55.033Z,8.33
2019-02-02T15:53:25.905Z,8.33
2019-02-02T15:55:57.241Z,8.36
2019-02-02T15:58:28.182Z,8.30
2019-02-02T16:00:59.220Z,8.26
2019-02-02T16:03:29.956Z,8.33
2019-02-02T16:06:00.954Z,8.23
2019-02-02T16:08:31.732Z,8.18
2019-02-02T16:11:02.719Z,8.13
2019-02-02T16:13:33.596Z,8.20
2019-02-02T16:16:04.807Z,8.21
2019-02-02T16:18:35.710Z,8.11
2019-02-02T16:21:06.572Z,8.05
2019-02-02T16:23:37.355Z,8.05
2019-02-02T16:26:08.300Z,8.08
2019-02-02T16:28:39.264Z,7.99
2019-02-02T16:31:10.242Z,7.93
2019-02-02T16:33:41.237Z,8.01
2019-02-02T16:36:12.292Z,7.89
2019-02-02T16:38:43.193Z,7.85
2019-02-02T16:41:14.379Z,7.84
2019-02-02T16:43:45.192Z,7.85
2019-02-02T16:46:16.283Z,7.82
2019-02-02T16:48:47.149Z,7.78
2019-02-02T16:51:17.959Z,7.75
2019-02-02T16:53:48.832Z,7.70
2019-02-02T16:56:19.719Z,7.65
2019-02-02T16:58:50.600Z,7.67
2019-02-02T17:01:21.702Z,7.61
2019-02-02T17:03:52.697Z,7.60
2019-02-02T17:06:23.940Z,7.57
2019-02-02T17:08:54.860Z,7.54
2019-02-02T17:11:25.913Z,7.52
2019-02-02T17:13:56.758Z,7.53
2019-02-02T17:16:27.662Z,7.49
2019-02-02T17:18:58.617Z,7.38
2019-02-02T17:21:29.618Z,7.37
2019-02-02T17:24:00.304Z,7.39
2019-02-02T17:26:31.369Z,7.41
2019-02-02T17:29:02.270Z,7.44
2019-02-02T17:31:33.358Z,7.39
2019-02-02T17:34:04.456Z,7.35
2019-02-02T17:36:40.522Z,7.32
2019-02-02T17:39:11.772Z,7.34
2019-02-02T17:41:42.709Z,7.27
2019-02-02T17:44:13.534Z,7.31
2019-02-02T17:46:45.352Z,7.31
2019-02-02T17:49:16.349Z,7.30
2019-02-02T17:51:47.383Z,7.30
2019-02-02T17:54:18.424Z,7.24
2019-02-02T17:56:49.297Z,7.18
2019-02-02T17:59:20.423Z,7.16
2019-02-02T18:01:51.585Z,7.17
2019-02-02T18:04:22.578Z,7.13
2019-02-02T18:06:53.338Z,7.11
2019-02-02T18:09:24.914Z,7.09
2019-02-02T18:11:55.908Z,7.07
2019-02-02T18:14:26.954Z,7.05
2019-02-02T18:16:57.901Z,7.07
2019-02-02T18:19:28.814Z,7.07
2019-02-02T18:21:59.667Z,7.02
2019-02-02T18:24:30.735Z,7.05
2019-02-02T18:27:01.773Z,6.98
2019-02-02T18:29:32.751Z,6.95
2019-02-02T18:32:12.718Z,6.93
2019-02-02T18:34:36.545Z,6.95
2019-02-02T18:37:07.459Z,6.95
2019-02-02T18:39:38.634Z,6.92
2019-02-02T18:42:09.420Z,6.93
2019-02-02T18:44:40.882Z,6.92
2019-02-02T18:47:12.644Z,6.92
2019-02-02T18:49:44.649Z,6.88
2019-02-02T18:52:16.550Z,6.86
2019-02-02T18:54:47.565Z,6.91
2019-02-02T18:57:18.335Z,6.91
2019-02-02T18:59:49.278Z,6.89
2019-02-02T19:02:20.351Z,6.98
2019-02-02T19:05:02.930Z,6.91
2019-02-02T19:07:23.825Z,6.90
2019-02-02T19:09:55.921Z,6.90
2019-02-02T19:12:26.493Z,6.90
2019-02-02T19:14:57.110Z,6.83
2019-02-02T19:17:32.093Z,6.84
2019-02-02T19:20:03.793Z,6.86
2019-02-02T19:22:34.581Z,6.83
2019-02-02T19:25:06.593Z,6.80
2019-02-02T19:27:37.481Z,6.89
2019-02-02T19:30:12.175Z,6.79
2019-02-02T19:32:43.060Z,6.74
2019-02-02T19:35:16.432Z,6.77
2019-02-02T19:37:47.478Z,6.81
2019-02-02T19:40:20.749Z,6.75
2019-02-02T19:42:51.645Z,6.74
2019-02-02T19:45:24.050Z,6.71
2019-02-02T19:47:54.929Z,6.69
2019-02-02T19:50:26.738Z,6.64
2019-02-02T19:52:57.627Z,6.62
2019-02-02T19:55:28.586Z,6.59
2019-02-02T19:57:59.508Z,6.56
2019-02-02T20:00:31.918Z,6.58
2019-02-02T20:03:03.130Z,6.57
2019-02-02T20:05:34.227Z,6.57
2019-02-02T20:08:05.416Z,6.57
2019-02-02T20:10:37.121Z,6.55
2019-02-02T20:13:07.997Z,6.55
2019-02-02T20:15:39.398Z,6.52
2019-02-02T20:18:10.835Z,6.53
2019-02-02T20:20:41.885Z,6.56
2019-02-02T20:23:12.794Z,6.56
2019-02-02T20:25:43.777Z,6.49
2019-02-02T20:28:14.650Z,6.50
2019-02-02T20:30:45.653Z,6.54
2019-02-02T20:33:19.777Z,6.46
2019-02-02T20:35:49.169Z,6.38
2019-02-02T20:38:20.353Z,6.38
2019-02-02T20:40:51.033Z,6.32
2019-02-02T20:43:22.023Z,6.39
2019-02-02T20:45:53.024Z,6.30
2019-02-02T20:48:23.716Z,6.29
2019-02-02T20:50:54.603Z,6.34
2019-02-02T20:53:25.509Z,6.19
2019-02-02T20:55:56.552Z,6.21
2019-02-02T20:58:27.469Z,6.19
2019-02-02T21:00:58.750Z,6.16
2019-02-02T21:03:29.550Z,6.13
2019-02-02T21:06:00.638Z,6.16
2019-02-02T21:08:31.424Z,6.09
2019-02-02T21:11:02.317Z,6.06
2019-02-02T21:13:33.104Z,6.13
2019-02-02T21:16:04.478Z,6.13
2019-02-02T21:18:35.381Z,6.15
2019-02-02T21:21:07.078Z,6.11
2019-02-02T21:23:38.062Z,6.09
2019-02-02T21:26:09.117Z,6.14
2019-02-02T21:28:50.116Z,6.13
2019-02-02T21:31:13.095Z,6.19
2019-02-02T21:33:43.979Z,6.13
2019-02-02T21:36:14.989Z,6.15
2019-02-02T21:38:45.865Z,6.18
2019-02-02T21:41:18.536Z,6.20
2019-02-02T21:43:49.596Z,6.13
2019-02-02T21:46:20.580Z,6.13
2019-02-02T21:48:51.465Z,6.07
2019-02-02T21:51:22.644Z,6.13
2019-02-02T21:53:53.420Z,6.15
2019-02-02T21:56:24.479Z,6.07
2019-02-02T21:58:55.420Z,6.06
2019-02-02T22:01:26.420Z,6.01
2019-02-02T22:03:57.281Z,6.11
2019-02-02T22:06:28.648Z,6.07
2019-02-02T22:08:59.584Z,6.03
2019-02-02T22:11:30.485Z,6.02
2019-02-02T22:14:01.348Z,6.05
2019-02-02T22:16:32.434Z,6.03
2019-02-02T22:19:03.444Z,6.00
2019-02-02T22:21:34.617Z,5.96
2019-02-02T22:24:05.506Z,5.95
2019-02-02T22:26:37.149Z,5.95
2019-02-02T22:29:08.214Z,6.05
2019-02-02T22:31:39.215Z,5.91
2019-02-02T22:34:09.979Z,5.94
2019-02-02T22:36:41.004Z,5.95
2019-02-02T22:39:11.875Z,5.89
2019-02-02T22:41:44.114Z,5.94
2019-02-02T22:44:14.881Z,5.84
2019-02-02T22:46:45.848Z,5.73
2019-02-02T22:49:16.540Z,5.83
2019-02-02T22:51:47.480Z,5.82
2019-02-02T22:54:18.317Z,5.80
2019-02-02T22:56:49.592Z,5.77
2019-02-02T22:59:20.409Z,5.84
2019-02-02T23:01:57.565Z,5.70
2019-02-02T23:04:53.724Z,5.72
2019-02-02T23:07:59.470Z,5.74
2019-02-02T23:11:09.638Z,5.66
2019-02-02T23:14:14.199Z,5.62
2019-02-02T23:16:44.998Z,5.63
2019-02-02T23:19:15.993Z,5.65
2019-02-02T23:21:46.764Z,5.67
2019-02-02T23:24:17.648Z,5.58
2019-02-02T23:26:48.529Z,5.61
2019-02-02T23:29:19.692Z,5.58
2019-02-02T23:31:50.896Z,5.61
2019-02-02T23:34:22.097Z,5.62
2019-02-02T23:36:56.170Z,5.55
2019-02-02T23:39:25.811Z,5.55
2019-02-02T23:41:56.725Z,5.56
2019-02-02T23:44:27.712Z,5.58
2019-02-02T23:46:58.644Z,5.53
2019-02-02T23:49:29.586Z,5.58
2019-02-02T23:52:00.493Z,5.52
2019-02-02T23:54:31.369Z,5.56
2019-02-02T23:57:02.249Z,5.60
2019-02-02T23:59:35.151Z,5.59
